createdAt,value
2022-08-17T00:00:43.601Z,8.50
2022-08-17T00:03:15.260Z,8.13
2022-08-17T00:05:49.258Z,7.15
2022-08-17T00:08:22.769Z,7.30
2022-08-17T00:10:53.015Z,7.60
2022-08-17T00:13:26.368Z,7.10
2022-08-17T00:15:59.953Z,7.40
2022-08-17T00:19:01.411Z,8.10
2022-08-17T00:21:23.895Z,7.00
2022-08-17T00:23:54.771Z,8.20
2022-08-17T00:26:43.643Z,7.63
2022-08-17T00:29:19.546Z,7.30
2022-08-17T00:31:48.579Z,7.38
2022-08-17T00:34:17.192Z,7.03
2022-08-17T00:36:47.092Z,7.80
2022-08-17T00:39:15.572Z,7.63
2022-08-17T00:41:44.007Z,7.32
2022-08-17T00:44:13.023Z,7.55
2022-08-17T00:46:44.050Z,7.43
2022-08-17T00:49:14.478Z,7.20
2022-08-17T00:51:49.343Z,7.38
2022-08-17T00:54:25.249Z,7.55
2022-08-17T00:56:58.098Z,6.95
2022-08-17T00:59:32.082Z,7.30
2022-08-17T01:02:00.931Z,6.85
2022-08-17T01:04:31.400Z,6.85
2022-08-17T01:07:04.453Z,7.55
2022-08-17T01:09:34.243Z,7.00
2022-08-17T01:12:02.918Z,7.13
2022-08-17T01:14:31.358Z,6.90
2022-08-17T01:17:00.870Z,7.47
2022-08-17T01:19:32.652Z,7.10
2022-08-17T01:22:07.666Z,7.82
2022-08-17T01:24:38.793Z,8.63
2022-08-17T01:27:10.343Z,9.48
2022-08-17T01:29:42.348Z,9.63
2022-08-17T01:32:11.219Z,9.70
2022-08-17T01:34:43.534Z,10.10
2022-08-17T01:37:21.195Z,9.82
2022-08-17T01:39:55.399Z,9.38
2022-08-17T01:42:28.250Z,9.60
2022-08-17T01:44:59.473Z,9.13
2022-08-17T01:47:27.982Z,8.55
2022-08-17T01:49:58.467Z,8.65
2022-08-17T01:52:26.859Z,8.23
2022-08-17T01:54:57.578Z,8.40
2022-08-17T01:57:25.981Z,8.77
2022-08-17T01:59:54.394Z,8.50
2022-08-17T02:02:30.467Z,9.10
2022-08-17T02:05:00.179Z,7.03
2022-08-17T02:07:29.185Z,7.97
2022-08-17T02:09:59.574Z,7.90
2022-08-17T02:12:37.762Z,6.93
2022-08-17T02:15:15.999Z,6.93
2022-08-17T02:17:45.473Z,7.07
2022-08-17T02:20:13.979Z,7.03
2022-08-17T02:22:45.757Z,7.10
2022-08-17T02:25:19.913Z,6.80
2022-08-17T02:27:53.048Z,6.97
2022-08-17T02:31:01.462Z,6.15
2022-08-17T02:33:10.494Z,6.90
2022-08-17T02:35:39.858Z,6.35
2022-08-17T02:38:08.908Z,6.13
2022-08-17T02:40:40.683Z,7.13
2022-08-17T02:43:10.042Z,6.65
2022-08-17T02:45:38.583Z,6.72
2022-08-17T02:48:07.360Z,6.97
2022-08-17T02:50:35.864Z,6.57
2022-08-17T02:53:04.798Z,6.20
2022-08-17T02:55:37.779Z,6.70
2022-08-17T02:58:08.497Z,6.28
2022-08-17T03:00:41.435Z,6.93
2022-08-17T03:03:13.743Z,6.78
2022-08-17T03:05:42.397Z,6.90
2022-08-17T03:08:13.112Z,6.50
2022-08-17T03:10:42.692Z,7.03
2022-08-17T03:13:14.498Z,6.90
2022-08-17T03:15:45.999Z,6.25
2022-08-17T03:18:24.535Z,6.55
2022-08-17T03:20:55.946Z,6.65
2022-08-17T03:23:25.363Z,6.07
2022-08-17T03:25:55.136Z,7.03
2022-08-17T03:28:26.622Z,6.50
2022-08-17T03:30:55.230Z,7.30
2022-08-17T03:33:24.217Z,8.98
2022-08-17T03:35:53.194Z,7.97
2022-08-17T03:38:22.024Z,8.57
2022-08-17T03:40:57.192Z,7.80
2022-08-17T03:43:31.826Z,9.15
2022-08-17T03:46:28.123Z,13.07
2022-08-17T03:49:20.129Z,12.57
2022-08-17T03:52:06.291Z,11.88
2022-08-17T03:54:51.951Z,12.40
2022-08-17T03:57:20.496Z,12.50
2022-08-17T03:59:50.882Z,12.55
2022-08-17T04:02:22.579Z,13.07
2022-08-17T04:04:52.497Z,13.57
2022-08-17T04:07:21.874Z,14.32
2022-08-17T04:09:50.757Z,15.85
2022-08-17T04:12:21.219Z,17.77
2022-08-17T04:14:52.715Z,18.42
2022-08-17T04:17:24.418Z,16.83
2022-08-17T04:19:53.129Z,16.13
2022-08-17T04:22:31.906Z,22.80
2022-08-17T04:25:09.368Z,23.45
2022-08-17T04:27:39.282Z,21.23
2022-08-17T04:30:10.752Z,19.25
2022-08-17T04:33:04.552Z,22.73
2022-08-17T04:35:37.716Z,20.50
2022-08-17T04:38:06.339Z,24.60
2022-08-17T04:40:52.074Z,27.58
2022-08-17T04:43:22.401Z,25.23
2022-08-17T04:45:56.715Z,25.38
2022-08-17T04:48:32.239Z,25.95
2022-08-17T04:51:10.749Z,27.27
2022-08-17T04:53:40.812Z,27.10
2022-08-17T04:56:16.053Z,30.02
2022-08-17T04:58:45.954Z,29.80
2022-08-17T05:01:16.759Z,25.23
2022-08-17T05:03:52.053Z,24.48
2022-08-17T05:06:20.852Z,24.75
2022-08-17T05:08:49.711Z,27.27
2022-08-17T05:11:18.359Z,26.77
2022-08-17T05:13:46.789Z,23.95
2022-08-17T05:16:17.565Z,24.08
2022-08-17T05:18:46.149Z,22.85
2022-08-17T05:21:14.668Z,27.50
2022-08-17T05:23:43.906Z,24.40
2022-08-17T05:26:26.283Z,23.98
2022-08-17T05:28:59.841Z,23.73
2022-08-17T05:31:31.242Z,24.50
2022-08-17T05:34:00.004Z,24.38
2022-08-17T05:36:42.154Z,27.33
2022-08-17T05:39:15.896Z,24.08
2022-08-17T05:41:48.755Z,23.80
2022-08-17T05:44:18.273Z,22.73
2022-08-17T05:46:52.027Z,20.58
2022-08-17T05:49:27.286Z,23.38
2022-08-17T05:52:14.885Z,21.00
2022-08-17T05:55:01.748Z,19.27
2022-08-17T05:57:53.245Z,20.02
2022-08-17T06:00:30.422Z,18.70
2022-08-17T06:03:36.251Z,19.20
2022-08-17T06:06:25.339Z,17.60
2022-08-17T06:09:20.038Z,16.27
2022-08-17T06:12:02.375Z,15.25
2022-08-17T06:14:47.571Z,14.73
2022-08-17T06:17:20.138Z,14.63
2022-08-17T06:19:54.728Z,16.65
2022-08-17T06:22:27.428Z,14.82
2022-08-17T06:25:02.359Z,13.00
2022-08-17T06:27:38.584Z,12.43
2022-08-17T06:30:10.642Z,13.38
2022-08-17T06:32:40.888Z,12.15
2022-08-17T06:35:13.237Z,12.20
2022-08-17T06:38:04.181Z,11.35
2022-08-17T06:41:10.713Z,12.93
2022-08-17T06:43:50.441Z,11.18
2022-08-17T06:46:25.431Z,11.43
2022-08-17T06:49:08.067Z,11.52
2022-08-17T06:51:42.089Z,10.60
2022-08-17T06:54:18.864Z,11.52
2022-08-17T06:56:55.350Z,11.32
2022-08-17T06:59:34.808Z,10.50
2022-08-17T07:02:29.176Z,9.93
2022-08-17T07:05:14.477Z,9.68
2022-08-17T07:08:05.649Z,10.57
2022-08-17T07:10:40.399Z,9.80
2022-08-17T07:13:30.986Z,10.75
2022-08-17T07:16:08.417Z,11.50
2022-08-17T07:18:37.533Z,10.40
2022-08-17T07:21:17.925Z,8.98
2022-08-17T07:24:01.226Z,9.77
2022-08-17T07:26:30.106Z,8.88
2022-08-17T07:29:00.638Z,8.30
2022-08-17T07:31:33.790Z,9.65
2022-08-17T07:34:08.071Z,10.18
2022-08-17T07:36:36.571Z,10.27
2022-08-17T07:39:07.967Z,9.13
2022-08-17T07:41:53.026Z,9.75
2022-08-17T07:44:28.282Z,9.20
2022-08-17T07:47:15.065Z,7.78
2022-08-17T07:49:47.044Z,9.30
2022-08-17T07:52:51.458Z,7.50
2022-08-17T07:55:31.208Z,7.05
2022-08-17T07:58:01.996Z,7.53
2022-08-17T08:00:32.740Z,8.30
2022-08-17T08:03:14.876Z,7.82
2022-08-17T08:05:53.319Z,10.18
2022-08-17T08:08:42.781Z,7.20
2022-08-17T08:11:15.770Z,7.20
2022-08-17T08:13:46.108Z,6.85
2022-08-17T08:16:29.282Z,6.93
2022-08-17T08:19:00.235Z,5.43
2022-08-17T08:21:34.456Z,6.03
2022-08-17T08:24:30.978Z,5.00
2022-08-17T08:27:11.878Z,5.72
2022-08-17T08:29:46.955Z,5.75
2022-08-17T08:32:21.654Z,4.93
2022-08-17T08:35:04.947Z,4.90
2022-08-17T08:37:44.753Z,4.72
2022-08-17T08:40:38.811Z,4.78
2022-08-17T08:43:22.794Z,4.47
2022-08-17T08:45:58.893Z,4.05
2022-08-17T08:48:58.037Z,4.07
2022-08-17T08:51:39.009Z,4.53
2022-08-17T08:54:26.402Z,4.47
2022-08-17T08:57:25.696Z,4.05
2022-08-17T09:00:04.112Z,3.63
2022-08-17T09:03:09.716Z,3.67
2022-08-17T09:05:58.222Z,3.65
2022-08-17T09:08:36.235Z,3.60
2022-08-17T09:11:11.266Z,3.90
2022-08-17T09:13:54.595Z,4.40
2022-08-17T09:16:30.724Z,3.95
2022-08-17T09:19:05.110Z,4.20
2022-08-17T09:21:48.191Z,4.25
2022-08-17T09:24:26.010Z,3.95
2022-08-17T09:27:00.843Z,3.72
2022-08-17T09:29:35.384Z,4.38
2022-08-17T09:32:16.294Z,4.00
2022-08-17T09:34:51.569Z,5.05
2022-08-17T09:37:27.253Z,4.25
2022-08-17T09:40:09.754Z,4.22
2022-08-17T09:42:46.361Z,3.38
2022-08-17T09:45:27.854Z,3.40
2022-08-17T09:48:05.065Z,4.18
2022-08-17T09:51:04.140Z,4.90
2022-08-17T09:53:32.068Z,4.63
2022-08-17T09:56:24.112Z,3.78
2022-08-17T09:59:17.351Z,3.78
2022-08-17T10:01:52.784Z,3.40
2022-08-17T10:04:38.329Z,4.35
2022-08-17T10:07:15.571Z,4.43
2022-08-17T10:09:55.947Z,3.63
2022-08-17T10:12:35.645Z,4.45
2022-08-17T10:15:26.714Z,3.78
2022-08-17T10:18:20.099Z,3.95
2022-08-17T10:21:17.025Z,4.10
2022-08-17T10:24:16.186Z,3.50
2022-08-17T10:26:57.153Z,4.00
2022-08-17T10:29:47.269Z,3.97
2022-08-17T10:32:32.261Z,3.85
2022-08-17T10:35:27.131Z,3.72
2022-08-17T10:38:15.573Z,3.25
2022-08-17T10:40:53.196Z,3.45
2022-08-17T10:43:35.464Z,4.30
2022-08-17T10:46:30.681Z,4.32
2022-08-17T10:49:25.140Z,3.58
2022-08-17T10:51:55.706Z,4.22
2022-08-17T10:54:48.003Z,4.30
2022-08-17T10:57:39.005Z,3.40
2022-08-17T11:00:16.080Z,3.03
2022-08-17T11:02:50.968Z,4.78
2022-08-17T11:05:37.947Z,4.20
2022-08-17T11:08:37.763Z,4.68
2022-08-17T11:11:40.245Z,5.40
2022-08-17T11:14:26.132Z,5.15
2022-08-17T11:17:13.199Z,4.03
2022-08-17T11:20:09.851Z,5.35
2022-08-17T11:23:09.598Z,4.10
2022-08-17T11:25:41.990Z,4.18
2022-08-17T11:28:19.378Z,3.05
2022-08-17T11:30:52.249Z,4.82
2022-08-17T11:34:04.276Z,4.68
2022-08-17T11:36:56.135Z,4.70
2022-08-17T11:39:41.454Z,5.25
2022-08-17T11:42:25.624Z,9.88
2022-08-17T11:44:59.150Z,4.72
2022-08-17T11:48:15.981Z,5.35
2022-08-17T11:51:06.947Z,4.68
2022-08-17T11:57:00.528Z,3.72
2022-08-17T11:59:57.709Z,4.93
2022-08-17T12:02:47.850Z,4.35
2022-08-17T12:05:29.224Z,4.13
2022-08-17T12:08:07.705Z,5.35
2022-08-17T12:10:54.443Z,4.53
2022-08-17T12:13:30.482Z,4.68
2022-08-17T12:16:10.160Z,5.40
2022-08-17T12:18:42.292Z,4.57
2022-08-17T12:21:19.954Z,4.72
2022-08-17T12:23:57.781Z,3.90
2022-08-17T12:26:30.496Z,6.18
2022-08-17T12:29:02.609Z,6.07
2022-08-17T12:31:36.571Z,5.80
2022-08-17T12:34:06.284Z,6.78
2022-08-17T12:36:35.253Z,6.35
2022-08-17T12:39:13.820Z,6.25
2022-08-17T12:41:47.049Z,6.75
2022-08-17T12:44:18.378Z,6.30
2022-08-17T12:46:55.554Z,6.18
2022-08-17T12:49:29.066Z,5.25
2022-08-17T12:52:06.149Z,6.50
2022-08-17T12:54:42.250Z,5.90
2022-08-17T12:59:47.550Z,6.72
2022-08-17T13:02:44.719Z,6.82
2022-08-17T13:05:25.946Z,7.70
2022-08-17T13:07:54.997Z,7.07
2022-08-17T14:10:31.035Z,4.93
2022-08-17T14:12:59.674Z,5.30
2022-08-17T14:15:54.615Z,4.90
2022-08-17T14:18:18.044Z,5.85
2022-08-17T14:21:08.501Z,4.65
2022-08-17T14:23:38.579Z,4.53
2022-08-17T14:26:08.899Z,5.13
2022-08-17T14:28:38.783Z,4.43
2022-08-17T14:31:22.941Z,4.45
2022-08-17T14:33:51.563Z,4.55
2022-08-17T14:36:19.941Z,4.25
2022-08-17T14:38:48.318Z,3.65
2022-08-17T14:41:21.972Z,4.13
2022-08-17T14:43:51.471Z,4.47
2022-08-17T14:46:20.021Z,5.13
2022-08-17T14:48:52.729Z,4.05
2022-08-17T14:51:24.288Z,4.70
2022-08-17T14:53:52.706Z,3.90
2022-08-17T14:56:22.627Z,4.38
2022-08-17T14:58:51.974Z,4.80
2022-08-17T15:01:22.154Z,4.80
2022-08-17T15:03:50.843Z,4.93
2022-08-17T15:06:19.480Z,4.03
2022-08-17T15:08:47.986Z,4.75
2022-08-17T15:11:16.749Z,4.55
2022-08-17T15:13:52.387Z,4.35
2022-08-17T15:16:22.784Z,4.88
2022-08-17T15:18:52.769Z,4.47
2022-08-17T15:21:21.277Z,4.10
2022-08-17T15:23:49.751Z,4.72
2022-08-17T15:26:20.675Z,5.95
2022-08-17T15:28:54.535Z,4.22
2022-08-17T15:31:31.706Z,4.60
2022-08-17T15:34:01.247Z,4.40
2022-08-17T15:36:29.701Z,5.28
2022-08-17T15:38:59.053Z,5.38
2022-08-17T15:41:28.298Z,4.65
2022-08-17T15:43:58.327Z,5.78
2022-08-17T15:46:28.125Z,5.40
2022-08-17T15:48:59.834Z,4.45
2022-08-17T15:51:30.866Z,5.28
2022-08-17T15:54:04.446Z,5.68
2022-08-17T15:56:48.025Z,5.07
2022-08-17T15:59:17.938Z,5.20
2022-08-17T16:03:01.512Z,4.75
2022-08-17T16:04:34.766Z,4.65
2022-08-17T16:07:03.313Z,4.45
2022-08-17T16:09:31.693Z,4.65
2022-08-17T16:12:10.400Z,4.65
2022-08-17T16:14:40.566Z,5.03
2022-08-17T16:17:38.523Z,4.57
2022-08-17T16:19:58.555Z,4.72
2022-08-17T16:22:33.623Z,4.53
2022-08-17T16:25:04.723Z,4.93
2022-08-17T16:27:33.258Z,4.75
2022-08-17T16:30:03.448Z,4.95
2022-08-17T16:32:32.880Z,5.70
2022-08-17T16:35:03.307Z,4.93
2022-08-17T16:37:34.233Z,5.90
2022-08-17T16:40:03.808Z,5.43
2022-08-17T16:42:35.046Z,4.80
2022-08-17T16:45:13.154Z,5.18
2022-08-17T16:47:42.606Z,5.18
2022-08-17T16:50:12.779Z,4.63
2022-08-17T16:52:42.554Z,5.10
2022-08-17T16:55:13.253Z,5.00
2022-08-17T16:57:47.350Z,4.45
2022-08-17T17:00:21.152Z,5.10
2022-08-17T17:02:50.294Z,5.07
2022-08-17T17:05:51.471Z,5.20
2022-08-17T17:08:30.992Z,5.40
2022-08-17T17:11:08.969Z,6.03
2022-08-17T17:13:44.780Z,5.07
2022-08-17T17:16:21.809Z,5.43
2022-08-17T17:19:05.293Z,5.38
2022-08-17T17:21:43.060Z,5.03
2022-08-17T17:24:16.759Z,5.18
2022-08-17T17:27:17.781Z,4.88
2022-08-17T17:30:00.520Z,4.70
2022-08-17T17:32:38.020Z,5.00
2022-08-17T17:35:11.442Z,5.07
2022-08-17T17:37:44.275Z,5.47
2022-08-17T17:40:19.230Z,4.80
2022-08-17T17:42:49.483Z,5.55
2022-08-17T17:45:23.371Z,4.57
2022-08-17T17:47:53.670Z,5.05
2022-08-17T17:50:30.746Z,4.80
2022-08-17T17:53:05.515Z,5.28
2022-08-17T17:55:46.596Z,5.30
2022-08-17T17:58:29.561Z,5.13
2022-08-17T18:01:14.460Z,5.05
2022-08-17T18:04:00.140Z,5.22
2022-08-17T18:06:41.452Z,4.53
2022-08-17T18:09:20.501Z,4.40
2022-08-17T18:12:04.694Z,5.18
2022-08-17T18:14:51.050Z,4.72
2022-08-17T18:17:20.529Z,4.45
2022-08-17T18:19:50.480Z,4.55
2022-08-17T18:22:21.613Z,4.80
2022-08-17T18:24:56.046Z,4.70
2022-08-17T18:27:32.336Z,5.40
2022-08-17T18:30:07.248Z,5.18
2022-08-17T18:32:38.583Z,5.22
2022-08-17T18:35:28.836Z,5.75
2022-08-17T18:37:59.641Z,4.78
2022-08-17T18:40:35.760Z,4.22
2022-08-17T18:43:09.204Z,4.47
2022-08-17T18:45:42.423Z,4.97
2022-08-17T18:48:27.273Z,4.47
2022-08-17T18:51:00.322Z,5.22
2022-08-17T18:53:36.122Z,5.07
2022-08-17T18:56:30.691Z,5.53
2022-08-17T18:59:07.454Z,4.80
2022-08-17T19:04:37.889Z,5.70
2022-08-17T19:07:28.059Z,5.05
2022-08-17T19:10:02.449Z,4.90
2022-08-17T19:12:39.213Z,4.82
2022-08-17T19:15:10.638Z,4.80
2022-08-17T19:17:42.952Z,4.63
2022-08-17T19:20:17.173Z,4.95
2022-08-17T19:22:56.820Z,5.00
2022-08-17T19:25:30.341Z,5.10
2022-08-17T19:28:05.264Z,5.07
2022-08-17T19:30:51.966Z,5.75
2022-08-17T19:33:20.844Z,5.20
2022-08-17T19:35:58.950Z,5.18
2022-08-17T19:38:40.187Z,6.32
2022-08-17T19:41:17.401Z,7.72
2022-08-17T19:44:07.134Z,9.77
2022-08-17T19:46:48.830Z,8.85
2022-08-17T19:49:46.766Z,7.70
2022-08-17T19:52:42.124Z,7.88
2022-08-17T19:55:30.459Z,7.38
2022-08-17T19:58:08.234Z,7.25
2022-08-17T20:00:41.943Z,7.38
2022-08-17T20:03:17.248Z,7.55
2022-08-17T20:06:11.622Z,7.05
2022-08-17T20:08:42.278Z,7.22
2022-08-17T20:11:18.593Z,7.20
2022-08-17T20:13:52.212Z,8.30
2022-08-17T20:16:21.233Z,7.13
2022-08-17T20:18:56.407Z,6.75
2022-08-17T20:21:30.247Z,6.47
2022-08-17T20:24:07.032Z,6.82
2022-08-17T20:26:57.865Z,8.00
2022-08-17T20:29:39.464Z,7.57
2022-08-17T20:32:18.688Z,6.88
2022-08-17T20:34:48.850Z,6.50
2022-08-17T20:37:31.869Z,6.95
2022-08-17T20:40:20.601Z,6.35
2022-08-17T20:42:50.751Z,7.10
2022-08-17T20:45:48.575Z,5.90
2022-08-17T20:48:37.055Z,5.93
2022-08-17T20:51:24.273Z,6.60
2022-08-17T20:54:28.588Z,6.70
2022-08-17T20:57:00.541Z,6.65
2022-08-17T21:00:14.686Z,6.30
2022-08-17T21:02:45.807Z,5.82
2022-08-17T21:05:39.040Z,6.70
2022-08-17T21:08:16.630Z,6.53
2022-08-17T21:10:47.325Z,6.93
2022-08-17T21:13:45.629Z,6.38
2022-08-17T21:16:35.855Z,6.20
2022-08-17T21:19:19.265Z,6.65
2022-08-17T21:21:59.265Z,6.28
2022-08-17T21:24:43.597Z,7.13
2022-08-17T21:27:30.393Z,6.85
2022-08-17T21:30:24.598Z,6.93
2022-08-17T21:33:20.837Z,7.00
2022-08-17T21:35:52.665Z,7.25
2022-08-17T21:38:24.318Z,11.70
2022-08-17T21:40:55.217Z,11.77
2022-08-17T21:43:32.127Z,9.27
2022-08-17T21:46:05.122Z,10.50
2022-08-17T21:48:44.094Z,8.65
2022-08-17T21:51:17.863Z,7.85
2022-08-17T21:53:49.984Z,7.00
2022-08-17T21:56:26.728Z,6.88
2022-08-17T21:58:59.354Z,7.20
2022-08-17T22:01:30.538Z,7.00
2022-08-17T22:04:04.521Z,6.80
2022-08-17T22:06:38.169Z,7.50
2022-08-17T22:09:13.563Z,6.68
2022-08-17T22:11:54.398Z,6.68
2022-08-17T22:14:26.490Z,7.20
2022-08-17T22:17:19.361Z,7.93
2022-08-17T22:19:52.971Z,7.47
2022-08-17T22:22:29.444Z,6.05
2022-08-17T22:25:00.689Z,6.60
2022-08-17T22:27:55.577Z,6.93
2022-08-17T22:30:36.352Z,7.07
2022-08-17T22:33:36.887Z,7.22
2022-08-17T22:36:22.015Z,7.28
2022-08-17T22:38:51.510Z,6.50
2022-08-17T22:41:44.908Z,5.53
2022-08-17T22:44:23.427Z,6.25
2022-08-17T22:46:59.605Z,6.60
2022-08-17T22:49:32.124Z,6.38
2022-08-17T22:52:04.853Z,6.43
2022-08-17T22:54:51.236Z,6.70
2022-08-17T22:57:39.336Z,6.55
2022-08-17T23:00:29.614Z,6.32
2022-08-17T23:03:14.872Z,6.10
2022-08-17T23:05:46.251Z,6.80
2022-08-17T23:08:21.369Z,6.00
2022-08-17T23:10:50.349Z,6.10
2022-08-17T23:13:18.891Z,6.55
2022-08-17T23:15:48.249Z,6.55
2022-08-17T23:18:17.883Z,5.63
2022-08-17T23:20:46.995Z,6.53
2022-08-17T23:23:20.621Z,5.97
2022-08-17T23:25:51.544Z,5.50
2022-08-17T23:28:20.041Z,5.78
2022-08-17T23:30:48.430Z,6.07
2022-08-17T23:33:21.373Z,6.05
2022-08-17T23:35:49.951Z,5.85
2022-08-17T23:38:19.822Z,6.45
2022-08-17T23:40:48.226Z,6.10
2022-08-17T23:46:04.058Z,5.30
2022-08-17T23:48:36.736Z,6.05
2022-08-17T23:51:12.398Z,5.82
2022-08-17T23:53:47.421Z,6.13
2022-08-17T23:56:19.451Z,5.65
2022-08-17T23:58:47.887Z,5.68
